x

9444090 - Port Angeles, Wa (ptaw1) Weather Station

7:30 - Mon 24th Apr 2017 All times are PDT. -7 hours from GMT.

  • Wind
    2mph, 3mph gusts
  • Sea Temp 50°f
  • Luft Temp 47°f
  • Sea Pressure 1006.7mb
  • 9444090 - Port Angeles, Wa
  • 9444090 - Port Angeles, Wa

More Historic Weather Station data

Upgrade to MSW Pro to gain access to the past 30 days of data for over 8000 Wavebouys and Weather Stations around the globe.

Join Pro

Comparision Forecast

View Surf forecast
   
Mo 04/24 7:30 2 3 mph 1006.7mb 50f 47f
7:24 2 3 mph 1006.7mb 50f 47f
7:18 2 3 mph 1006.7mb 50f 47f
7:12 3
mph
1006.6mb 50f 47f
7:06 1 2 mph 1006.7mb 50f 47f
7:00 1 2 mph 1006.6mb 50f 47f
6:36 2 5 mph 1006.5mb 50f 47f
6:30 5
mph
1006.5mb 50f 47f
6:24 3 5 mph 1006.5mb 50f 47f
6:18 3
mph
1006.5mb 50f 47f
6:12 2 5 mph 1006.5mb 50f 47f
6:06 3 5 mph 1006.5mb 50f 47f
6:00 3 5 mph 1006.5mb 50f 47f
5:36 3 5 mph 1006.5mb 50f 47f
5:30 3 5 mph 1006.5mb 50f 47f
5:24 3 5 mph 1006.5mb 50f 47f
5:18 3 5 mph 1006.6mb 50f 47f
5:12 3 5 mph 1006.6mb 50f 47f
5:06 2 3 mph 1006.6mb 50f 47f
5:00 2 3 mph 1006.7mb 50f 47f
4:36 2 5 mph 1006.8mb 50f 47f
4:30 3 5 mph 1006.8mb 50f 47f
4:24 5 6 mph 1006.7mb 50f 47f
4:18 3 5 mph 1006.8mb 50f 47f
4:12 3 5 mph 1006.8mb 50f 47f
4:06 3
mph
1006.9mb 50f 47f
4:00 2 3 mph 1006.9mb 50f 47f
3:36 1 2 mph 1006.9mb 50f 47f
3:30 2 3 mph 1006.9mb 50f 48f
3:24 2 3 mph 1007mb 50f 47f
3:18 2 3 mph 1007mb 50f 47f
3:12 1 2 mph 1007mb 50f 47f
3:06 2 3 mph 1007.1mb 50f 47f
3:00 2 3 mph 1007.1mb 50f 47f
2:36 2
mph
1007.3mb 50f 47f
2:30 1 3 mph 1007.3mb 50f 47f
2:24 2 3 mph 1007.3mb 50f 47f
2:18 2
mph
1007.4mb 50f 47f
2:12 1 2 mph 1007.4mb 50f 47f
2:06 2 3 mph 1007.4mb 50f 47f
2:00 2 3 mph 1007.5mb 50f 47f
1:36 2 5 mph 1007.6mb 50f 47f
1:30 2 3 mph 1007.6mb 50f 48f
1:24  -  3 mph 1007.6mb 50f 48f
1:18 2 3 mph 1007.7mb 50f 48f
1:12 3 5 mph 1007.8mb 50f 48f
1:06 2 3 mph 1007.8mb 50f 48f
1:00 3 5 mph 1007.8mb 50f 48f
12:36 2 5 mph 1008mb 50f 48f
12:30 2 3 mph 1008mb 50f 48f
12:24 2 3 mph 1008.1mb 50f 48f
12:18 2 5 mph 1008.1mb 50f 48f
12:12 3 6 mph 1008.1mb 50f 48f
12:06 3 6 mph 1008mb 50f 48f
12:00 2 6 mph 1008mb 50f 48f
So 04/23 11:36 5 7 mph 1008.1mb 50f 48f
11:30 5 6 mph 1008.1mb 50f 48f
11:24 3 6 mph 1008.1mb 50f 48f
11:18 2 5 mph 1008.1mb 51f 49f
11:12 3 8 mph 1008.2mb 51f 49f
11:06 6 8 mph 1008.2mb 51f 49f
11:00 6 9 mph 1008.2mb 51f 48f
10:36 8 10 mph 1008.2mb 51f 48f
10:30 7 9 mph 1008.3mb 51f 49f
10:24 6 8 mph 1008.3mb 51f 49f
10:18 2 3 mph 1008.3mb 51f 49f
10:12 2 5 mph 1008.3mb 51f 49f
10:06 3 5 mph 1008.3mb 51f 49f
10:00 3 6 mph 1008.2mb 51f 49f
9:36 5 6 mph 1008.2mb 51f 49f
9:30 3 5 mph 1008.2mb 51f 49f
9:24 2 3 mph 1008.3mb 51f 49f
9:18 2 3 mph 1008.3mb 51f 49f
9:12 3 6 mph 1008.3mb 51f 49f
9:06 5 6 mph 1008.3mb 51f 49f
9:00 5 7 mph 1008.2mb 51f 49f
8:36 6 7 mph 1008mb 51f 50f
8:30 6 8 mph 1008mb 51f 50f
8:24 5 7 mph 1007.9mb 51f 50f
8:18 5 7 mph 1008mb 51f 50f
8:12 2 6 mph 1007.9mb 51f 50f
8:06 3 6 mph 1007.9mb 51f 50f
8:00 6 8 mph 1007.9mb 51f 50f
7:36 5 6 mph 1007.9mb 51f 50f
7:30 5 7 mph 1007.9mb 51f 50f
7:24 7 8 mph 1007.9mb 51f 50f
7:18 6 9 mph 1008mb 51f 50f
7:12 7 11 mph 1008mb 51f 50f
7:06 9 13 mph 1008mb 51f 50f
7:00 11 16 mph 1007.9mb 51f 50f
6:36 13 17 mph 1007.9mb 51f 50f
6:30 14 17 mph 1007.8mb 51f 50f
6:24 14 15 mph 1007.7mb 51f 50f
6:18 13 16 mph 1007.8mb 51f 51f
6:12 13 18 mph 1007.8mb 51f 51f
6:06 13 16 mph 1007.8mb 51f 50f
6:00 13 15 mph 1007.8mb 51f 51f
5:36 16 22 mph 1008mb 51f 51f
5:30 16 22 mph 1007.9mb 51f 51f
5:24 15 21 mph 1007.9mb 51f 51f
5:18 17 21 mph 1007.9mb 51f 51f
5:12 16 20 mph 1007.9mb 51f 51f
5:06 16 20 mph 1007.9mb 51f 51f
5:00 14 20 mph 1007.9mb 51f 51f
4:36 16 22 mph 1007.9mb 51f 51f
4:30 15 21 mph 1007.9mb 51f 51f
4:24 16 22 mph 1007.9mb 51f 51f
4:18 17 23 mph 1007.9mb 51f 52f
4:12 17 22 mph 1007.8mb 51f 52f
4:06 16 22 mph 1007.8mb 51f 51f
4:00 20 23 mph 1007.8mb 51f 52f
3:36 16 21 mph 1007.8mb 51f 51f
3:30 14 16 mph 1007.9mb 51f 52f
3:24 11 15 mph 1008mb 51f 51f
3:18 13 15 mph 1007.9mb 51f 51f
3:12 13 15 mph 1007.9mb 51f 51f
3:06 13 14 mph 1008mb 51f 51f
3:00 10 14 mph 1008mb 51f 51f
2:36 10 13 mph 1008.1mb 51f 50f
2:30 11 13 mph 1008.2mb 51f 50f
2:24 10 11 mph 1008.3mb 51f 50f
2:18 9 11 mph 1008.3mb 51f 50f
2:12 10 11 mph 1008.3mb 51f 50f
2:06 9 10 mph 1008.4mb 51f 50f
2:00 9 10 mph 1008.5mb 51f 50f
1:36 7 8 mph 1008.6mb 51f 49f
1:30 6 7 mph 1008.7mb 51f 50f
1:24 6 7 mph 1008.8mb 51f 49f
1:18 5 6 mph 1009mb 51f 50f
1:12 3 5 mph 1009.1mb 51f 49f
1:06 2 5 mph 1009.1mb 51f 49f
1:00 3 5 mph 1009.2mb 51f 49f
12:36 3 6 mph 1009.5mb 51f 51f
12:30 2 5 mph 1009.5mb 51f 51f
12:24 2 3 mph 1009.6mb 51f 54f
12:18 3
mph
1009.7mb 51f 54f
12:12 2 3 mph 1009.8mb 51f 53f
12:06 2 3 mph 1009.9mb 51f 53f
12:00 2 5 mph 1010mb 51f 52f
11:36 5 7 mph 1010.4mb 51f 50f
11:30 5 6 mph 1010.5mb 51f 50f
11:24 5 7 mph 1010.5mb 51f 50f
11:18 6 8 mph 1010.6mb 51f 51f
11:12 5 7 mph 1010.6mb 51f 50f
11:06 6 7 mph 1010.7mb 51f 50f
11:00 5 7 mph 1010.8mb 51f 51f
10:36 6 8 mph 1010.9mb 51f 50f
10:30 7 8 mph 1010.9mb 51f 51f
10:24 8
mph
1010.9mb 51f 50f
10:18 7 8 mph 1010.9mb 51f 50f
10:12 8 9 mph 1011mb 51f 50f
10:06 7 9 mph 1011mb 51f 50f
10:00 8 9 mph 1011mb 51f 50f
9:36 10 11 mph 1011mb 51f 50f
9:30 10 11 mph 1011.1mb 51f 50f
9:24 8 10 mph 1011.1mb 51f 50f
9:18 8 10 mph 1011.1mb 51f 50f
9:12 6 8 mph 1011.1mb 51f 50f
9:06 6 7 mph 1011.2mb 51f 50f
9:00 6 7 mph 1011.2mb 51f 51f
8:36 6 7 mph 1011.3mb 51f 50f
8:30 6 7 mph 1011.4mb 51f 50f
8:24 6 7 mph 1011.5mb 51f 50f
8:18 6
mph
1011.5mb 51f 50f
8:12 6 8 mph 1011.5mb 51f 50f
8:06 7 8 mph 1011.5mb 51f 50f
8:00 6 7 mph 1011.5mb 51f 50f
7:36 2 3 mph 1011.8mb 51f 49f
7:30 2
mph
1011.8mb 51f 48f
7:24 2
mph
1011.9mb 51f 48f
7:18 1 2 mph 1011.9mb 51f 48f
7:12 1 2 mph 1011.9mb 51f 48f
7:06 2
mph
1011.9mb 51f 48f
7:00 2
mph
1011.9mb 51f 48f
6:36 2
mph
1012mb 51f 47f
6:30 2
mph
1012mb 51f 47f
6:24 2 3 mph 1012.1mb 51f 47f
6:18 2 3 mph 1012.2mb 51f 47f
6:12 2 3 mph 1012.2mb 51f 47f
6:06 3
mph
1012.3mb 51f 47f
6:00 2 3 mph 1012.3mb 51f 47f
5:36 2
mph
1012.2mb 51f 47f
5:30 2
mph
1012.3mb 51f 47f
5:24 1 2 mph 1012.4mb 51f 47f
5:18 3 5 mph 1012.4mb 51f 46f
5:12 5
mph
1012.4mb 51f 47f
5:06 3 5 mph 1012.4mb 51f 46f
5:00 3 5 mph 1012.5mb 51f 46f
4:36 5
mph
1012.7mb 51f 46f
4:30 5 6 mph 1012.8mb 51f 46f
4:24 5 6 mph 1012.8mb 51f 46f
4:18 5 6 mph 1012.8mb 51f 46f
4:12 6
mph
1012.8mb 51f 46f
4:06 3 6 mph 1012.9mb 51f 46f
4:00 5 7 mph 1012.9mb 51f 46f
3:36 5
mph
1013.1mb 51f 47f
3:30 3 5 mph 1013.1mb 51f 47f
3:24 3
mph
1013.1mb 51f 47f
3:18 1 2 mph 1013.1mb 51f 47f
3:12 2 3 mph 1013.2mb 51f 47f
3:06 3
mph
1013.2mb 51f 47f
3:00 2 3 mph 1013.3mb 51f 47f
2:36  -  2 mph 1013.4mb 51f 48f
2:30 2 5 mph 1013.4mb 51f 47f
2:24 3 6 mph 1013.5mb 51f 47f
2:18 2 3 mph 1013.6mb 51f 47f
2:12  -  3 mph 1013.5mb 51f 47f
2:06 2 3 mph 1013.5mb 51f 47f
2:00 3 6 mph 1013.6mb 51f 47f
1:36 5
mph
1013.5mb 51f 47f
1:30 1 3 mph 1013.5mb 51f 47f
1:24 2 3 mph 1013.5mb 51f 47f
1:18 3 7 mph 1013.4mb 51f 47f
1:12 6 8 mph 1013.4mb 51f 47f
1:06 5 7 mph 1013.5mb 51f 47f
1:00 5 7 mph 1013.5mb 51f 47f
12:36 3 5 mph 1013.2mb 51f 46f
12:30 3 6 mph 1013.3mb 51f 47f
12:24 6 7 mph 1013.3mb 51f 47f
12:18 6 8 mph 1013.3mb 51f 47f
12:12 7 8 mph 1013.3mb 51f 47f
12:06 7 8 mph 1013.3mb 51f 47f
12:00 6 8 mph 1013.3mb 51f 47f
Sa 04/22 11:36 6 7 mph 1013.3mb 51f 47f
11:30 6 7 mph 1013.3mb 51f 47f
11:24 5 6 mph 1013.3mb 51f 48f
11:18 6 7 mph 1013.3mb 51f 48f
11:12 5 6 mph 1013.3mb 51f 48f
11:06 6 7 mph 1013.3mb 51f 49f
11:00 2 5 mph 1013.3mb 51f 49f
10:36 1 3 mph 1013.3mb 51f 50f
10:30 3 7 mph 1013.3mb 51f 50f
10:24 5 6 mph 1013.3mb 51f 51f
10:18 2 3 mph 1013.1mb 51f 51f
10:12  -  2 mph 1013mb 51f 50f
10:06  -  1 mph 1013mb 51f 50f
10:00  -  3 mph 1013mb 51f 50f
9:36 6 7 mph 1012.8mb 51f 51f
9:30 5 6 mph 1012.8mb 51f 51f
9:24 5 7 mph 1012.7mb 51f 51f
9:18 5 8 mph 1012.6mb 51f 51f
9:12 6
mph
1012.5mb 51f 51f
9:06 5 6 mph 1012.5mb 51f 51f
9:00 5 6 mph 1012.4mb 51f 51f
8:36 3 6 mph 1012.1mb 51f 51f
8:30 5 9 mph 1012.1mb 51f 51f
8:24 7 9 mph 1012.1mb 51f 51f
8:18 9 10 mph 1012.1mb 51f 52f
8:12 6 7 mph 1012mb 51f 52f
8:06 2 3 mph 1012.1mb 51f 52f
8:00 1 3 mph 1012mb 51f 52f
7:36 5 11 mph 1011.8mb 51f 52f
7:30 11 14 mph 1011.7mb 51f 52f
7:24 7 11 mph 1011.6mb 51f 52f
7:18 10 13 mph 1011.6mb 51f 52f
7:12 5 8 mph 1011.6mb 51f 52f
7:06 2 5 mph 1011.8mb 51f 52f
7:00 1 6 mph 1011.7mb 51f 52f
6:36 9 14 mph 1011mb 51f 51f
6:30 11 15 mph 1011mb 51f 52f
6:24 13 16 mph 1010.9mb 51f 51f
6:18 14 16 mph 1010.7mb 51f 52f
6:12 14 18 mph 1010.5mb 51f 52f
6:06 14 17 mph 1010.5mb 51f 52f
6:00 10 13 mph 1010.4mb 51f 52f
5:36 5 9 mph 1010.5mb 50f 52f
5:30 8 13 mph 1010.6mb 50f 52f
5:24 8 11 mph 1010.6mb 50f 53f
5:18 7 9 mph 1010.6mb 50f 54f
5:12 7 9 mph 1010.7mb 50f 55f
5:06 9 10 mph 1010.5mb 50f 54f
5:00 8 11 mph 1010.5mb 50f 53f
4:36 9 13 mph 1010mb 50f 54f
4:30 7 9 mph 1009.9mb 50f 53f
4:24 6 9 mph 1009.8mb 50f 53f
4:18 6 8 mph 1009.7mb 50f 53f
4:12 2 5 mph 1009.5mb 50f 53f
4:06 2 7 mph 1009.4mb 51f 53f
4:00 5 8 mph 1009.2mb 51f 53f
3:36 3 5 mph 1009.3mb 51f 54f
3:30 3 5 mph 1009.3mb 51f 53f
3:24 5 6 mph 1009.4mb 51f 53f
3:18 6
mph
1009.3mb 51f 53f
3:12 1 3 mph 1009.2mb 51f 53f
3:06 5 6 mph 1009.3mb 51f 53f
3:00 5 6 mph 1009.4mb 51f 53f
2:36 6 7 mph 1009.2mb 51f 53f
2:30 7 10 mph 1009.2mb 51f 53f
2:24 9 13 mph 1009.1mb 51f 53f
2:18 10 13 mph 1009.1mb 51f 53f
2:12 6 7 mph 1008.9mb 51f 54f
2:06 6 7 mph 1008.7mb 51f 54f
2:00 5 6 mph 1008.7mb 51f 54f
1:36 1 2 mph 1008.8mb 51f 54f
1:30 3 6 mph 1008.8mb 51f 54f
1:24 1 5 mph 1008.9mb 51f 55f
1:18 3 6 mph 1008.6mb 51f 54f
1:12 5 6 mph 1008.9mb 51f 53f
1:06 5 7 mph 1008.7mb 51f 55f
1:00 3 5 mph 1008.8mb 51f 54f
12:36 1 5 mph 1008.8mb 51f 53f
12:30 1 3 mph 1008.8mb 51f 54f
12:24 2 6 mph 1008.5mb 51f 54f
12:18 3 5 mph 1008.8mb 51f 54f
12:12 2 5 mph 1008.7mb 51f 54f
12:06 2 6 mph 1008.6mb 51f 54f
12:00 6 7 mph 1008.6mb 51f 54f
11:36 7 14 mph 1008.3mb 51f 55f
11:30 13 16 mph 1008.1mb 51f 55f
11:24 8 13 mph 1008.7mb 51f 55f
11:18 7 16 mph 1008.6mb 51f 55f
11:12 10 16 mph 1008.2mb 51f 55f
11:06 14 18 mph 1007.7mb 51f 55f
11:00 13 17 mph 1007.5mb 51f 54f
10:36 9 15 mph 1007.1mb 51f 54f
10:30 7 13 mph 1007mb 51f 54f
10:24 9 14 mph 1007mb 51f 53f
10:18 10 14 mph 1007mb 51f 53f
10:12 8 14 mph 1007mb 51f 53f
10:06 9 14 mph 1006.9mb 51f 53f
10:00 6 11 mph 1006.7mb 51f 53f
9:36 3 7 mph 1006.8mb 51f 52f
9:30 3 6 mph 1006.8mb 51f 52f
9:24 5 6 mph 1006.8mb 51f 52f
9:18 2 6 mph 1006.7mb 51f 52f
9:12 5 6 mph 1006.9mb 51f 52f
9:06 2 3 mph 1006.8mb 51f 52f
9:00 2 5 mph 1006.8mb 51f 51f
8:36 5 7 mph 1007.1mb 51f 51f
8:30 5 6 mph 1007.1mb 51f 51f
8:24 6 8 mph 1007.2mb 51f 51f
8:18 3 5 mph 1007.2mb 51f 52f
8:12 1 5 mph 1007.2mb 51f 52f
8:06 3 9 mph 1007.3mb 51f 52f
8:00 7 10 mph 1007.4mb 51f 51f
7:36 7 8 mph 1007.3mb 51f 50f
7:30 6 8 mph 1007.2mb 51f 50f
7:24 3 6 mph 1007.1mb 51f 50f
7:18 3 5 mph 1007.2mb 51f 50f
7:12 3 6 mph 1007.4mb 51f 50f
7:06 2 5 mph 1007.4mb 51f 50f
7:00 2 5 mph 1007.4mb 51f 50f
6:36 6
mph
1008mb 51f 47f
6:30 7 9 mph 1008.1mb 51f 47f
6:24 8 9 mph 1008.2mb 51f 47f
6:18 7 9 mph 1008.3mb 51f 47f
6:12 8 9 mph 1008.4mb 51f 47f
6:06 6 8 mph 1008.5mb 51f 47f
6:00 7 8 mph 1008.7mb 51f 47f
5:36 7 8 mph 1009.2mb 51f 47f
5:30 7 8 mph 1009.2mb 51f 46f
5:24 2 6 mph 1009.2mb 51f 46f
5:18 6 7 mph 1009.3mb 51f 47f
5:12 6 9 mph 1009.4mb 51f 46f
5:06 8 9 mph 1009.5mb 51f 46f
5:00 8 9 mph 1009.6mb 51f 46f
4:36 6 7 mph 1010mb 51f 47f
4:30 8 9 mph 1010.2mb 51f 47f
4:24 3 7 mph 1010.4mb 51f 47f
4:18 8 10 mph 1010.4mb 51f 47f
4:12 7 8 mph 1010.4mb 51f 47f
4:06 8 10 mph 1010.4mb 51f 48f
4:00 6 9 mph 1010.5mb 51f 48f
3:36 6 8 mph 1011.1mb 51f 49f
3:30 5 9 mph 1011.2mb 51f 49f
3:24 7 10 mph 1011.1mb 51f 49f
3:18 7 9 mph 1011.2mb 51f 49f
3:12 7 9 mph 1011.3mb 51f 49f
3:06 5 8 mph 1011.4mb 51f 50f
3:00 3 9 mph 1011.5mb 51f 50f
2:36 6 7 mph 1011.9mb 51f 49f
2:30 7 8 mph 1012.1mb 51f 49f
2:24 3 7 mph 1012.2mb 51f 49f
2:18 6 7 mph 1012.4mb 51f 49f
2:12 3 6 mph 1012.5mb 51f 50f
2:06 5 6 mph 1012.6mb 51f 50f
2:00 5 6 mph 1012.8mb 51f 50f
1:36  -  5 mph 1013.1mb 51f 51f
1:30 1 3 mph 1013.3mb 51f 51f
1:24 2 3 mph 1013.5mb 51f 51f
1:18 2 3 mph 1013.6mb 51f 51f
1:12 2 5 mph 1013.7mb 51f 51f
1:06 5 6 mph 1013.9mb 51f 51f
1:00 3 5 mph 1014mb 51f 51f
12:36 1 2 mph 1014.2mb 51f 50f
12:30  -  2 mph 1014.2mb 51f 50f
12:24  -  3 mph 1014.3mb 51f 49f
12:18  -  2 mph 1014.5mb 51f 49f
12:12  -  3 mph 1014.6mb 51f 49f
12:06 1 3 mph 1014.7mb 51f 51f
12:00  -  2 mph 1014.9mb 51f 51f
Fr 04/21 11:36 2 3 mph 1015.5mb 51f 52f
11:30 3 6 mph 1015.7mb 51f 52f
11:24 7 10 mph 1015.8mb 51f 53f
11:18 6 9 mph 1015.8mb 51f 53f
11:12 5 7 mph 1015.9mb 51f 52f
11:06 3 5 mph 1016mb 51f 53f
11:00 3 6 mph 1016.1mb 51f 52f
10:36 2 5 mph 1016.6mb 51f 51f
10:30 3 5 mph 1016.7mb 51f 52f
10:24 2 3 mph 1016.8mb 51f 53f
10:18  -  2 mph 1017mb 51f 53f
10:12 1 3 mph 1017.1mb 51f 54f
10:06 1 6 mph 1017.2mb 51f 54f
10:00 2 6 mph 1017.3mb 51f 53f
9:36 5 6 mph 1017.7mb 51f 53f
9:30 5 6 mph 1017.8mb 50f 53f
9:24 3
mph
1017.7mb 50f 53f
9:18 3 5 mph 1017.8mb 50f 53f
9:12 2 3 mph 1018mb 50f 54f
9:06 1 3 mph 1018mb 50f 54f
9:00  -  1 mph 1018.1mb 50f 54f
8:36 2 3 mph 1018.4mb 50f 54f
8:30 2
mph
1018.6mb 50f 55f
8:24 2 3 mph 1018.7mb 50f 55f
8:18 2 3 mph 1018.8mb 50f 56f
8:12  -  2 mph 1018.8mb 50f 55f
8:06  -  2 mph 1018.8mb 50f 55f
8:00 1 2 mph 1018.9mb 50f 55f
7:36 5
mph
1019.2mb 50f 54f
7:30 5
mph
1019.3mb 50f 55f
7:24 3 6 mph 1019.3mb 50f 55f
7:18 3 5 mph 1019.5mb 50f 55f
7:12 3 6 mph 1019.5mb 50f 56f
7:06 2 3 mph 1019.5mb 50f 56f
7:00 2 3 mph 1019.7mb 50f 56f
6:36 5 7 mph 1020mb 51f 56f
6:30 6 7 mph 1020.1mb 51f 56f
6:24 6 7 mph 1020.2mb 51f 56f
6:18 6 7 mph 1020.4mb 50f 56f
6:12 6 8 mph 1020.5mb 50f 56f
6:06 7 9 mph 1020.5mb 50f 56f
6:00 6 9 mph 1020.6mb 50f 55f
5:36 8 9 mph 1021.1mb 51f 55f
5:30 8 10 mph 1021.3mb 51f 55f
5:24 7 8 mph 1021.4mb 51f 55f
5:18 8 9 mph 1021.5mb 51f 55f
5:12 8 10 mph 1021.6mb 51f 55f
5:06 7 9 mph 1021.7mb 51f 54f
5:00 8 9 mph 1021.8mb 51f 55f
4:36 8
mph
1022.4mb 51f 55f
4:30 8 9 mph 1022.5mb 51f 54f
4:24 8 9 mph 1022.6mb 51f 55f
4:18 6 7 mph 1022.7mb 51f 54f
4:12 7 8 mph 1022.9mb 51f 54f
4:06 7 9 mph 1023mb 51f 55f
4:00 7 8 mph 1023.1mb 51f 54f
3:36 8 9 mph 1023.6mb 51f 54f
3:30 7 9 mph 1023.7mb 51f 54f
3:24 8 11 mph 1023.8mb 51f 53f
3:18 7 10 mph 1024mb 51f 53f
3:12 7 11 mph 1024.1mb 51f 53f
3:06 6 9 mph 1024.2mb 51f 53f
3:00 6 8 mph 1024.3mb 51f 53f
2:36 3 7 mph 1025mb 51f 54f
2:30 3 7 mph 1025mb 51f 54f
2:24 3 9 mph 1025.1mb 51f 55f
2:18 3 8 mph 1025.2mb 51f 54f
2:12 5 9 mph 1025.3mb 51f 54f
2:06 3 7 mph 1025.4mb 51f 54f
2:00 5 7 mph 1025.5mb 51f 54f
1:36 6 8 mph 1026mb 51f 54f
1:30 5 6 mph 1026.1mb 51f 53f
1:24 3 5 mph 1026.2mb 51f 53f
1:18 5 6 mph 1026.3mb 51f 53f
1:12 6 7 mph 1026.4mb 51f 53f
1:06 5 7 mph 1026.5mb 51f 52f
1:00 6 8 mph 1026.7mb 51f 53f
12:36 7 9 mph 1027mb 51f 52f
12:30 7 9 mph 1027.2mb 51f 52f
12:24 7 9 mph 1027.3mb 51f 51f
12:18 7 10 mph 1027.4mb 51f 51f
12:12 7 10 mph 1027.6mb 51f 51f
12:06 8 9 mph 1027.7mb 51f 51f
12:00 8 10 mph 1027.8mb 51f 51f
11:36 9 11 mph 1028mb 50f 51f
11:30 9 11 mph 1028mb 50f 51f
11:24 9 11 mph 1028.1mb 50f 51f
11:18 10 16 mph 1028.1mb 49f 50f
11:12 13 16 mph 1028.1mb 49f 50f
11:06 9 11 mph 1028.1mb 49f 50f
11:00 7 10 mph 1028.1mb 49f 51f
10:36 5 7 mph 1028.3mb 49f 53f
10:30 3 7 mph 1028.3mb 49f 52f
10:24 5 6 mph 1028.4mb 49f 52f
10:18 5 7 mph 1028.5mb 49f 52f
10:12 6 7 mph 1028.5mb 49f 52f
10:06 5 8 mph 1028.6mb 49f 52f
10:00 5 8 mph 1028.6mb 49f 52f
9:36 5 8 mph 1028.9mb 49f 52f
9:30 6 10 mph 1028.9mb 49f 52f
9:24 8 11 mph 1028.8mb 49f 53f
9:18 6 9 mph 1028.8mb 49f 53f
9:12 6 8 mph 1028.9mb 49f 53f
9:06 6 9 mph 1028.9mb 49f 53f
9:00 6 9 mph 1029mb 49f 53f
8:36 9 11 mph - - -
8:30 9 11 mph 1029.4mb 49f 51f
8:24 9 11 mph 1029.4mb 49f 52f
8:18 10 14 mph 1029.5mb 49f 51f
8:12 11 14 mph 1029.5mb 49f 51f
8:06 9 14 mph 1029.6mb 49f 51f
8:00 10 15 mph 1029.6mb 49f 51f
7:36 2 3 mph 1029.9mb 49f 51f
7:30 2 3 mph 1029.9mb 49f 50f
7:24 3 5 mph 1029.9mb 49f 48f
7:18 2 3 mph 1029.9mb 49f 48f
7:12 2 5 mph 1029.8mb 49f 48f
7:06 2 3 mph 1029.9mb 49f 48f
7:00  -  1 mph 1029.8mb 49f 48f
6:30 5 6 mph 1029.7mb 49f 47f
6:24 3 6 mph 1029.7mb 49f 47f
6:18 3 6 mph 1029.6mb 49f 47f
6:12 1 3 mph 1029.6mb 49f 47f
6:06 3 5 mph 1029.6mb 49f 47f
6:00  -  2 mph 1029.5mb 49f 47f
5:36 1 2 mph 1029.6mb 49f 47f
5:30 2 5 mph 1029.6mb 49f 47f
5:24 2 3 mph 1029.6mb 49f 47f
5:18 1 2 mph 1029.5mb 49f 47f
5:12 2
mph
1029.5mb 49f 47f
5:06 2 3 mph 1029.5mb 49f 47f
5:00 2 3 mph 1029.5mb 49f 47f
4:36 1 3 mph 1029.4mb 49f 47f
4:30 3 5 mph 1029.5mb 49f 47f
4:24 3 5 mph 1029.5mb 49f 47f
4:18 2 3 mph 1029.6mb 49f 47f
4:12 2 3 mph 1029.6mb 49f 47f
4:06 2
mph
1029.6mb 49f 47f
4:00 2 3 mph 1029.6mb 49f 47f
3:36 3 5 mph 1029.8mb 49f 47f
3:30 3 5 mph 1029.8mb 49f 47f
3:24 5 7 mph 1029.8mb 49f 47f
3:18 6 7 mph 1029.7mb 49f 47f
3:12 5 7 mph 1029.7mb 49f 47f
3:06 5 6 mph 1029.7mb 49f 47f
3:00 5 6 mph 1029.7mb 49f 47f
2:36 5 6 mph 1029.8mb 49f 47f
2:30 3 5 mph 1029.8mb 49f 47f
2:24 3 6 mph 1029.8mb 49f 47f
2:18 3 6 mph 1029.8mb 49f 47f
2:12 6 7 mph 1029.8mb 49f 47f
2:06 5 6 mph 1029.7mb 49f 46f
2:00 6
mph
1029.7mb 49f 47f
1:36 6 7 mph 1029.7mb 49f 47f
1:30 6 7 mph 1029.7mb 49f 47f
1:24 6 7 mph 1029.7mb 49f 47f
1:18 5 6 mph 1029.7mb 49f 47f
1:12 3 6 mph 1029.7mb 49f 47f
1:06 5 6 mph 1029.7mb 49f 47f
1:00 3 6 mph 1029.7mb 49f 46f
12:36 2 3 mph 1029.8mb 49f 47f
12:30 3
mph
1029.8mb 49f 47f
12:24 2 3 mph 1029.7mb 49f 47f
12:18 3 5 mph 1029.6mb 49f 47f
12:12 2 5 mph 1029.6mb 49f 47f
12:06 3
mph
1029.5mb 49f 47f
12:00 2 5 mph 1029.5mb 49f 47f
Do 04/20 11:36 5 7 mph 1029.3mb 50f 47f
11:30 6 8 mph 1029.3mb 50f 48f
11:24 6 9 mph 1029.3mb 50f 48f
11:18 5 8 mph 1029.2mb 50f 49f
11:12 5 7 mph 1029.1mb 50f 49f
11:06 5 7 mph 1029.1mb 50f 48f
11:00 5 7 mph 1029mb 50f 49f
10:36 3 6 mph 1028.7mb 50f 49f
10:30 3 7 mph 1028.6mb 50f 49f
10:24 2 7 mph 1028.6mb 50f 49f
10:18 6 9 mph 1028.5mb 50f 49f
10:12 5 7 mph 1028.4mb 50f 49f
10:06 3 7 mph 1028.4mb 50f 49f
10:00 3 8 mph 1028.3mb 50f 50f
9:36 5 9 mph 1028.1mb 50f 50f
9:30 6 8 mph 1028mb 50f 50f
9:24 6 9 mph 1028mb 50f 50f
9:18 5 8 mph 1027.9mb 50f 50f
9:12 6 10 mph 1027.8mb 50f 50f
9:06 6 8 mph 1027.8mb 50f 50f
9:00 5 10 mph 1027.7mb 50f 50f
8:36 3 6 mph 1027.3mb 50f 50f
8:30 3 6 mph 1027.3mb 50f 51f
8:24 2 5 mph 1027.2mb 50f 50f
8:18 1 3 mph 1027.1mb 50f 51f
8:12 1 3 mph 1027.1mb 50f 51f
8:06 1 3 mph 1027.1mb 50f 51f
8:00 2 5 mph 1027mb 49f 51f
7:36 3 6 mph 1026.8mb 49f 51f
7:30 3 7 mph 1026.8mb 49f 51f
7:24 5 6 mph 1026.8mb 49f 51f
7:18 6 7 mph 1026.8mb 49f 51f
7:12 5 7 mph 1026.7mb 49f 50f
7:06 7 8 mph 1026.7mb 49f 50f
7:00 7 9 mph 1026.7mb 49f 50f
6:36 7 8 mph 1026.6mb 49f 50f
6:30 7 9 mph 1026.6mb 49f 50f
6:24 6 9 mph 1026.5mb 49f 50f
6:18 8 9 mph 1026.4mb 49f 51f
6:12 7 8 mph 1026.3mb 49f 51f
6:06 6 8 mph 1026.3mb 49f 51f
6:00 7 10 mph 1026.2mb 49f 51f
5:36 9 14 mph 1026.1mb 49f 52f
5:30 10 14 mph 1026mb 49f 52f
5:24 7 10 mph 1025.9mb 49f 52f
5:18 10 13 mph 1025.9mb 49f 52f
5:12 9 10 mph 1025.8mb 49f 52f
5:06 9 11 mph 1025.8mb 49f 53f
5:00 8 10 mph 1025.7mb 49f 53f
4:36 9 10 mph 1025.4mb 49f 53f
4:30 6 8 mph 1025.3mb 49f 54f
4:24 2 6 mph 1025.2mb 49f 53f
4:18 3 5 mph 1025.1mb 49f 54f
4:12 3
mph
1025mb 49f 55f
4:06 2 3 mph 1024.9mb 49f 55f
4:00 3 5 mph 1024.8mb 49f 55f
3:36 3 5 mph 1024.4mb 49f 54f